sensor_id;sensor_type;location;lat;lon;timestamp;temperature;humidity
65472;DHT22;52068;50.710;14.492;2023-04-24T00:02:22;22.39;45.67
65472;DHT22;52068;50.710;14.492;2023-04-24T00:04:47;22.35;45.79
65472;DHT22;52068;50.710;14.492;2023-04-24T00:07:14;22.41;45.77
65472;DHT22;52068;50.710;14.492;2023-04-24T00:09:41;22.39;45.80
65472;DHT22;52068;50.710;14.492;2023-04-24T00:12:06;22.38;45.86
65472;DHT22;52068;50.710;14.492;2023-04-24T00:14:32;22.38;46.01
65472;DHT22;52068;50.710;14.492;2023-04-24T00:16:57;22.42;45.98
65472;DHT22;52068;50.710;14.492;2023-04-24T00:19:22;22.41;45.98
65472;DHT22;52068;50.710;14.492;2023-04-24T00:21:48;22.39;45.93
65472;DHT22;52068;50.710;14.492;2023-04-24T00:24:16;22.41;46.08
65472;DHT22;52068;50.710;14.492;2023-04-24T00:26:42;22.42;46.08
65472;DHT22;52068;50.710;14.492;2023-04-24T00:29:07;22.42;45.94
65472;DHT22;52068;50.710;14.492;2023-04-24T00:31:32;22.38;45.92
65472;DHT22;52068;50.710;14.492;2023-04-24T00:33:59;22.41;45.91
65472;DHT22;52068;50.710;14.492;2023-04-24T00:36:25;22.41;45.83
65472;DHT22;52068;50.710;14.492;2023-04-24T00:38:51;22.39;45.66
65472;DHT22;52068;50.710;14.492;2023-04-24T00:41:17;22.39;45.69
65472;DHT22;52068;50.710;14.492;2023-04-24T00:43:42;22.39;45.74
65472;DHT22;52068;50.710;14.492;2023-04-24T00:46:08;22.36;45.74
65472;DHT22;52068;50.710;14.492;2023-04-24T00:48:33;22.38;45.81
65472;DHT22;52068;50.710;14.492;2023-04-24T00:50:59;22.33;45.76
65472;DHT22;52068;50.710;14.492;2023-04-24T00:53:24;22.35;45.76
65472;DHT22;52068;50.710;14.492;2023-04-24T00:55:49;22.32;45.71
65472;DHT22;52068;50.710;14.492;2023-04-24T00:58:15;22.33;45.53
65472;DHT22;52068;50.710;14.492;2023-04-24T01:00:40;22.32;45.84
65472;DHT22;52068;50.710;14.492;2023-04-24T01:03:06;22.32;45.87
65472;DHT22;52068;50.710;14.492;2023-04-24T01:05:33;22.32;45.82
65472;DHT22;52068;50.710;14.492;2023-04-24T01:07:59;22.29;45.79
65472;DHT22;52068;50.710;14.492;2023-04-24T01:10:24;22.29;45.78
65472;DHT22;52068;50.710;14.492;2023-04-24T01:12:50;22.31;45.83
65472;DHT22;52068;50.710;14.492;2023-04-24T01:15:16;22.32;45.69
65472;DHT22;52068;50.710;14.492;2023-04-24T01:17:42;22.29;45.64
65472;DHT22;52068;50.710;14.492;2023-04-24T01:20:07;22.29;45.78
65472;DHT22;52068;50.710;14.492;2023-04-24T01:22:33;22.29;45.86
65472;DHT22;52068;50.710;14.492;2023-04-24T01:24:59;22.32;45.88
65472;DHT22;52068;50.710;14.492;2023-04-24T01:27:24;22.29;45.80
65472;DHT22;52068;50.710;14.492;2023-04-24T01:29:50;22.29;45.92
65472;DHT22;52068;50.710;14.492;2023-04-24T01:32:17;22.31;45.88
65472;DHT22;52068;50.710;14.492;2023-04-24T01:34:42;22.26;45.97
65472;DHT22;52068;50.710;14.492;2023-04-24T01:37:07;22.26;45.92
65472;DHT22;52068;50.710;14.492;2023-04-24T01:39:33;22.29;45.91
65472;DHT22;52068;50.710;14.492;2023-04-24T01:41:58;22.29;45.97
65472;DHT22;52068;50.710;14.492;2023-04-24T01:44:23;22.28;45.82
65472;DHT22;52068;50.710;14.492;2023-04-24T01:46:49;22.29;45.82
65472;DHT22;52068;50.710;14.492;2023-04-24T01:49:14;22.29;45.92
65472;DHT22;52068;50.710;14.492;2023-04-24T01:51:39;22.26;45.97
65472;DHT22;52068;50.710;14.492;2023-04-24T01:54:05;22.26;46.00
65472;DHT22;52068;50.710;14.492;2023-04-24T01:56:30;22.28;45.97
65472;DHT22;52068;50.710;14.492;2023-04-24T01:58:58;22.26;46.03
65472;DHT22;52068;50.710;14.492;2023-04-24T02:01:24;22.25;46.07
65472;DHT22;52068;50.710;14.492;2023-04-24T02:03:50;22.28;46.01
65472;DHT22;52068;50.710;14.492;2023-04-24T02:06:15;22.28;46.10
65472;DHT22;52068;50.710;14.492;2023-04-24T02:08:41;22.28;46.01
65472;DHT22;52068;50.710;14.492;2023-04-24T02:11:06;22.26;46.16
65472;DHT22;52068;50.710;14.492;2023-04-24T02:13:33;22.26;46.12
65472;DHT22;52068;50.710;14.492;2023-04-24T02:15:58;22.25;46.23
65472;DHT22;52068;50.710;14.492;2023-04-24T02:18:23;22.26;46.25
65472;DHT22;52068;50.710;14.492;2023-04-24T02:20:49;22.28;46.39
65472;DHT22;52068;50.710;14.492;2023-04-24T02:23:14;22.26;46.45
65472;DHT22;52068;50.710;14.492;2023-04-24T02:25:40;22.28;46.26
65472;DHT22;52068;50.710;14.492;2023-04-24T02:28:05;22.29;46.41
65472;DHT22;52068;50.710;14.492;2023-04-24T02:30:30;22.26;46.32
65472;DHT22;52068;50.710;14.492;2023-04-24T02:32:55;22.26;46.43
65472;DHT22;52068;50.710;14.492;2023-04-24T02:35:21;22.25;46.35
65472;DHT22;52068;50.710;14.492;2023-04-24T02:37:46;22.25;46.43
65472;DHT22;52068;50.710;14.492;2023-04-24T02:40:12;22.25;46.39
65472;DHT22;52068;50.710;14.492;2023-04-24T02:42:37;22.24;46.49
65472;DHT22;52068;50.710;14.492;2023-04-24T02:45:02;22.25;46.49
65472;DHT22;52068;50.710;14.492;2023-04-24T02:47:27;22.24;46.48
65472;DHT22;52068;50.710;14.492;2023-04-24T02:49:53;22.29;46.37
65472;DHT22;52068;50.710;14.492;2023-04-24T02:52:18;22.28;46.41
65472;DHT22;52068;50.710;14.492;2023-04-24T02:54:43;22.25;46.35
65472;DHT22;52068;50.710;14.492;2023-04-24T02:57:09;22.25;46.38
65472;DHT22;52068;50.710;14.492;2023-04-24T02:59:34;22.25;46.48
65472;DHT22;52068;50.710;14.492;2023-04-24T03:01:59;22.25;46.55
65472;DHT22;52068;50.710;14.492;2023-04-24T03:04:25;22.29;46.90
65472;DHT22;52068;50.710;14.492;2023-04-24T03:06:51;22.28;46.85
65472;DHT22;52068;50.710;14.492;2023-04-24T03:09:18;22.29;46.75
65472;DHT22;52068;50.710;14.492;2023-04-24T03:11:43;22.26;46.66
65472;DHT22;52068;50.710;14.492;2023-04-24T03:14:08;22.26;46.69
65472;DHT22;52068;50.710;14.492;2023-04-24T03:16:34;22.25;46.79
65472;DHT22;52068;50.710;14.492;2023-04-24T03:18:59;22.26;46.72
65472;DHT22;52068;50.710;14.492;2023-04-24T03:21:24;22.25;46.63
65472;DHT22;52068;50.710;14.492;2023-04-24T03:23:50;22.25;46.67
65472;DHT22;52068;50.710;14.492;2023-04-24T03:26:16;22.22;46.77
65472;DHT22;52068;50.710;14.492;2023-04-24T03:28:41;22.24;46.82
65472;DHT22;52068;50.710;14.492;2023-04-24T03:31:06;22.22;46.75
65472;DHT22;52068;50.710;14.492;2023-04-24T03:33:31;22.25;46.68
65472;DHT22;52068;50.710;14.492;2023-04-24T03:35:57;22.21;46.69
65472;DHT22;52068;50.710;14.492;2023-04-24T03:38:22;22.22;46.44
65472;DHT22;52068;50.710;14.492;2023-04-24T03:40:47;22.22;46.49
65472;DHT22;52068;50.710;14.492;2023-04-24T03:43:12;22.22;46.54
65472;DHT22;52068;50.710;14.492;2023-04-24T03:45:38;22.24;46.59
65472;DHT22;52068;50.710;14.492;2023-04-24T03:48:03;22.25;46.62
65472;DHT22;52068;50.710;14.492;2023-04-24T03:50:28;22.22;46.54
65472;DHT22;52068;50.710;14.492;2023-04-24T03:52:54;22.22;46.53
65472;DHT22;52068;50.710;14.492;2023-04-24T03:55:19;22.22;46.56
65472;DHT22;52068;50.710;14.492;2023-04-24T03:57:45;22.22;46.46
65472;DHT22;52068;50.710;14.492;2023-04-24T04:00:10;22.21;46.59
65472;DHT22;52068;50.710;14.492;2023-04-24T04:02:36;22.21;46.54
65472;DHT22;52068;50.710;14.492;2023-04-24T04:05:01;22.21;46.52
65472;DHT22;52068;50.710;14.492;2023-04-24T04:07:27;22.22;46.44
65472;DHT22;52068;50.710;14.492;2023-04-24T04:09:52;22.21;46.43
65472;DHT22;52068;50.710;14.492;2023-04-24T04:12:17;22.22;46.47
65472;DHT22;52068;50.710;14.492;2023-04-24T04:14:42;22.18;46.43
65472;DHT22;52068;50.710;14.492;2023-04-24T04:17:08;22.19;46.55
65472;DHT22;52068;50.710;14.492;2023-04-24T04:19:33;22.19;46.41
65472;DHT22;52068;50.710;14.492;2023-04-24T04:21:58;22.18;46.45
65472;DHT22;52068;50.710;14.492;2023-04-24T04:24:24;22.19;46.58
65472;DHT22;52068;50.710;14.492;2023-04-24T04:26:49;22.18;46.47
65472;DHT22;52068;50.710;14.492;2023-04-24T04:29:16;22.19;46.54
65472;DHT22;52068;50.710;14.492;2023-04-24T04:31:41;22.19;46.45
65472;DHT22;52068;50.710;14.492;2023-04-24T04:34:06;22.21;46.42
65472;DHT22;52068;50.710;14.492;2023-04-24T04:36:32;22.19;46.46
65472;DHT22;52068;50.710;14.492;2023-04-24T04:39:01;22.22;46.56
65472;DHT22;52068;50.710;14.492;2023-04-24T04:41:27;22.22;46.44
65472;DHT22;52068;50.710;14.492;2023-04-24T04:43:53;22.21;46.55
65472;DHT22;52068;50.710;14.492;2023-04-24T04:46:18;22.22;46.57
65472;DHT22;52068;50.710;14.492;2023-04-24T04:48:43;22.22;46.56
65472;DHT22;52068;50.710;14.492;2023-04-24T04:51:08;22.21;46.67
65472;DHT22;52068;50.710;14.492;2023-04-24T04:53:34;22.18;46.63
65472;DHT22;52068;50.710;14.492;2023-04-24T04:55:59;22.22;46.61
65472;DHT22;52068;50.710;14.492;2023-04-24T04:58:25;22.21;46.53
65472;DHT22;52068;50.710;14.492;2023-04-24T05:00:50;22.19;46.40
65472;DHT22;52068;50.710;14.492;2023-04-24T05:03:17;22.22;46.59
65472;DHT22;52068;50.710;14.492;2023-04-24T05:05:42;22.22;46.68
65472;DHT22;52068;50.710;14.492;2023-04-24T05:08:08;22.25;46.78
65472;DHT22;52068;50.710;14.492;2023-04-24T05:10:33;22.25;47.09
65472;DHT22;52068;50.710;14.492;2023-04-24T05:12:58;22.26;47.12
65472;DHT22;52068;50.710;14.492;2023-04-24T05:15:24;22.28;46.91
65472;DHT22;52068;50.710;14.492;2023-04-24T05:17:49;22.28;46.86
65472;DHT22;52068;50.710;14.492;2023-04-24T05:20:14;22.28;46.76
65472;DHT22;52068;50.710;14.492;2023-04-24T05:22:40;22.28;46.65
65472;DHT22;52068;50.710;14.492;2023-04-24T05:25:05;22.26;46.58
65472;DHT22;52068;50.710;14.492;2023-04-24T05:27:30;22.29;46.58
65472;DHT22;52068;50.710;14.492;2023-04-24T05:29:56;22.26;46.52
65472;DHT22;52068;50.710;14.492;2023-04-24T05:32:21;22.26;46.57
65472;DHT22;52068;50.710;14.492;2023-04-24T05:34:46;22.26;46.51
65472;DHT22;52068;50.710;14.492;2023-04-24T05:37:12;22.28;46.47
65472;DHT22;52068;50.710;14.492;2023-04-24T05:39:37;22.25;46.52
65472;DHT22;52068;50.710;14.492;2023-04-24T05:42:03;22.29;46.72
65472;DHT22;52068;50.710;14.492;2023-04-24T05:44:29;22.28;46.65
65472;DHT22;52068;50.710;14.492;2023-04-24T05:46:55;22.31;46.45
65472;DHT22;52068;50.710;14.492;2023-04-24T05:49:23;22.32;46.39
65472;DHT22;52068;50.710;14.492;2023-04-24T05:51:48;22.35;46.24
65472;DHT22;52068;50.710;14.492;2023-04-24T05:54:13;22.36;46.11
65472;DHT22;52068;50.710;14.492;2023-04-24T05:56:39;22.38;45.92
65472;DHT22;52068;50.710;14.492;2023-04-24T05:59:05;22.41;45.80
65472;DHT22;52068;50.710;14.492;2023-04-24T06:01:30;22.48;45.68
65472;DHT22;52068;50.710;14.492;2023-04-24T06:03:56;22.43;45.73
65472;DHT22;52068;50.710;14.492;2023-04-24T06:06:21;22.46;45.91
65472;DHT22;52068;50.710;14.492;2023-04-24T06:08:47;22.49;45.81
65472;DHT22;52068;50.710;14.492;2023-04-24T06:11:12;22.52;45.68
65472;DHT22;52068;50.710;14.492;2023-04-24T06:13:37;22.52;45.71
65472;DHT22;52068;50.710;14.492;2023-04-24T06:16:02;22.53;45.62
65472;DHT22;52068;50.710;14.492;2023-04-24T06:18:28;22.57;45.64
65472;DHT22;52068;50.710;14.492;2023-04-24T06:20:53;22.60;45.59
65472;DHT22;52068;50.710;14.492;2023-04-24T06:23:20;22.62;45.59
65472;DHT22;52068;50.710;14.492;2023-04-24T06:25:45;22.63;45.50
65472;DHT22;52068;50.710;14.492;2023-04-24T06:28:10;22.62;45.50
65472;DHT22;52068;50.710;14.492;2023-04-24T06:30:36;22.66;45.42
65472;DHT22;52068;50.710;14.492;2023-04-24T06:33:01;22.66;45.42
65472;DHT22;52068;50.710;14.492;2023-04-24T06:35:26;22.67;45.41
65472;DHT22;52068;50.710;14.492;2023-04-24T06:37:51;22.67;45.38
65472;DHT22;52068;50.710;14.492;2023-04-24T06:40:17;22.70;45.37
65472;DHT22;52068;50.710;14.492;2023-04-24T06:42:43;22.72;45.36
65472;DHT22;52068;50.710;14.492;2023-04-24T06:45:09;22.73;45.27
65472;DHT22;52068;50.710;14.492;2023-04-24T06:47:34;22.73;45.23
65472;DHT22;52068;50.710;14.492;2023-04-24T06:50:00;22.74;45.21
65472;DHT22;52068;50.710;14.492;2023-04-24T06:52:25;22.74;45.18
65472;DHT22;52068;50.710;14.492;2023-04-24T06:54:50;22.74;45.16
65472;DHT22;52068;50.710;14.492;2023-04-24T06:57:16;22.73;45.15
65472;DHT22;52068;50.710;14.492;2023-04-24T06:59:41;22.76;45.11
65472;DHT22;52068;50.710;14.492;2023-04-24T07:02:06;22.76;45.11
65472;DHT22;52068;50.710;14.492;2023-04-24T07:04:32;22.77;45.07
65472;DHT22;52068;50.710;14.492;2023-04-24T07:06:57;22.77;45.03
65472;DHT22;52068;50.710;14.492;2023-04-24T07:09:23;22.76;44.99
65472;DHT22;52068;50.710;14.492;2023-04-24T07:11:50;22.76;44.97
65472;DHT22;52068;50.710;14.492;2023-04-24T07:14:16;22.76;44.96
65472;DHT22;52068;50.710;14.492;2023-04-24T07:16:41;22.77;44.92
65472;DHT22;52068;50.710;14.492;2023-04-24T07:19:07;22.80;44.89
65472;DHT22;52068;50.710;14.492;2023-04-24T07:21:32;22.79;44.89
65472;DHT22;52068;50.710;14.492;2023-04-24T07:23:58;22.80;44.89
65472;DHT22;52068;50.710;14.492;2023-04-24T07:26:23;22.82;44.77
65472;DHT22;52068;50.710;14.492;2023-04-24T07:28:48;22.82;44.79
65472;DHT22;52068;50.710;14.492;2023-04-24T07:31:14;22.80;44.71
65472;DHT22;52068;50.710;14.492;2023-04-24T07:33:39;22.83;44.76
65472;DHT22;52068;50.710;14.492;2023-04-24T07:36:05;22.83;44.69
65472;DHT22;52068;50.710;14.492;2023-04-24T07:38:30;22.84;44.67
65472;DHT22;52068;50.710;14.492;2023-04-24T07:40:56;22.87;44.64
65472;DHT22;52068;50.710;14.492;2023-04-24T07:43:21;22.86;44.61
65472;DHT22;52068;50.710;14.492;2023-04-24T07:45:47;22.86;44.58
65472;DHT22;52068;50.710;14.492;2023-04-24T07:48:12;22.87;44.59
65472;DHT22;52068;50.710;14.492;2023-04-24T07:50:39;22.86;44.56
65472;DHT22;52068;50.710;14.492;2023-04-24T07:53:05;22.84;44.58
65472;DHT22;52068;50.710;14.492;2023-04-24T07:55:30;22.89;44.57
65472;DHT22;52068;50.710;14.492;2023-04-24T07:57:56;22.87;44.56
65472;DHT22;52068;50.710;14.492;2023-04-24T08:00:21;22.86;44.54
65472;DHT22;52068;50.710;14.492;2023-04-24T08:02:46;22.82;44.56
65472;DHT22;52068;50.710;14.492;2023-04-24T08:05:12;22.82;44.55
65472;DHT22;52068;50.710;14.492;2023-04-24T08:07:37;22.79;44.62
65472;DHT22;52068;50.710;14.492;2023-04-24T08:10:03;22.77;44.66
65472;DHT22;52068;50.710;14.492;2023-04-24T08:12:28;22.80;44.61
65472;DHT22;52068;50.710;14.492;2023-04-24T08:14:54;22.76;44.67
65472;DHT22;52068;50.710;14.492;2023-04-24T08:17:19;22.74;44.61
65472;DHT22;52068;50.710;14.492;2023-04-24T08:19:44;22.77;44.67
65472;DHT22;52068;50.710;14.492;2023-04-24T08:22:13;22.77;44.61
65472;DHT22;52068;50.710;14.492;2023-04-24T08:24:38;22.73;44.71
65472;DHT22;52068;50.710;14.492;2023-04-24T08:27:04;22.74;44.71
65472;DHT22;52068;50.710;14.492;2023-04-24T08:29:29;22.72;44.72
65472;DHT22;52068;50.710;14.492;2023-04-24T08:31:54;22.73;44.78
65472;DHT22;52068;50.710;14.492;2023-04-24T08:34:20;22.73;44.79
65472;DHT22;52068;50.710;14.492;2023-04-24T08:36:45;22.74;44.82
65472;DHT22;52068;50.710;14.492;2023-04-24T08:39:11;22.73;44.85
65472;DHT22;52068;50.710;14.492;2023-04-24T08:41:36;22.77;44.84
65472;DHT22;52068;50.710;14.492;2023-04-24T08:44:03;22.77;44.83
65472;DHT22;52068;50.710;14.492;2023-04-24T08:46:28;22.77;44.77
65472;DHT22;52068;50.710;14.492;2023-04-24T08:48:54;22.77;44.82
65472;DHT22;52068;50.710;14.492;2023-04-24T08:51:21;22.77;44.87
65472;DHT22;52068;50.710;14.492;2023-04-24T08:53:46;22.80;44.90
65472;DHT22;52068;50.710;14.492;2023-04-24T08:56:12;22.80;45.00
65472;DHT22;52068;50.710;14.492;2023-04-24T08:58:38;22.80;45.01
65472;DHT22;52068;50.710;14.492;2023-04-24T09:01:03;22.79;45.01
65472;DHT22;52068;50.710;14.492;2023-04-24T09:03:29;22.74;45.06
65472;DHT22;52068;50.710;14.492;2023-04-24T09:05:55;22.76;45.21
65472;DHT22;52068;50.710;14.492;2023-04-24T09:08:23;22.76;45.20
65472;DHT22;52068;50.710;14.492;2023-04-24T09:10:49;22.77;45.38
65472;DHT22;52068;50.710;14.492;2023-04-24T09:13:14;22.76;45.45
65472;DHT22;52068;50.710;14.492;2023-04-24T09:15:39;22.74;45.58
65472;DHT22;52068;50.710;14.492;2023-04-24T09:18:05;22.72;45.48
65472;DHT22;52068;50.710;14.492;2023-04-24T09:20:31;22.74;45.64
65472;DHT22;52068;50.710;14.492;2023-04-24T09:22:59;22.74;45.67
65472;DHT22;52068;50.710;14.492;2023-04-24T09:25:34;22.74;45.75
65472;DHT22;52068;50.710;14.492;2023-04-24T09:28:03;22.77;45.79
65472;DHT22;52068;50.710;14.492;2023-04-24T09:30:29;22.79;45.78
65472;DHT22;52068;50.710;14.492;2023-04-24T09:33:13;22.82;45.80
65472;DHT22;52068;50.710;14.492;2023-04-24T09:35:40;22.79;45.61
65472;DHT22;52068;50.710;14.492;2023-04-24T09:38:06;22.80;45.70
65472;DHT22;52068;50.710;14.492;2023-04-24T09:40:31;22.79;45.71
65472;DHT22;52068;50.710;14.492;2023-04-24T09:42:59;22.79;45.74
65472;DHT22;52068;50.710;14.492;2023-04-24T09:45:28;22.80;45.77
65472;DHT22;52068;50.710;14.492;2023-04-24T09:47:53;22.76;45.71
65472;DHT22;52068;50.710;14.492;2023-04-24T09:50:21;22.79;45.86
65472;DHT22;52068;50.710;14.492;2023-04-24T09:52:55;22.79;45.91
65472;DHT22;52068;50.710;14.492;2023-04-24T09:55:20;22.80;45.84
65472;DHT22;52068;50.710;14.492;2023-04-24T10:00:21;22.77;45.73
65472;DHT22;52068;50.710;14.492;2023-04-24T10:02:50;22.74;45.95
65472;DHT22;52068;50.710;14.492;2023-04-24T10:05:16;22.76;45.92
65472;DHT22;52068;50.710;14.492;2023-04-24T10:07:43;22.76;45.92
65472;DHT22;52068;50.710;14.492;2023-04-24T10:10:08;22.74;45.88
65472;DHT22;52068;50.710;14.492;2023-04-24T10:12:34;22.76;45.91
65472;DHT22;52068;50.710;14.492;2023-04-24T10:14:59;22.74;45.95
65472;DHT22;52068;50.710;14.492;2023-04-24T10:17:26;22.76;45.93
65472;DHT22;52068;50.710;14.492;2023-04-24T10:19:53;22.76;45.73
65472;DHT22;52068;50.710;14.492;2023-04-24T10:22:19;22.77;45.80
65472;DHT22;52068;50.710;14.492;2023-04-24T10:24:46;22.76;45.76
65472;DHT22;52068;50.710;14.492;2023-04-24T10:27:12;22.74;45.81
65472;DHT22;52068;50.710;14.492;2023-04-24T10:29:40;22.74;45.91
65472;DHT22;52068;50.710;14.492;2023-04-24T10:32:06;22.72;45.85
65472;DHT22;52068;50.710;14.492;2023-04-24T10:34:32;22.74;45.83
65472;DHT22;52068;50.710;14.492;2023-04-24T10:36:57;22.77;45.70
65472;DHT22;52068;50.710;14.492;2023-04-24T10:39:22;22.74;45.72
65472;DHT22;52068;50.710;14.492;2023-04-24T10:41:50;22.74;45.79
65472;DHT22;52068;50.710;14.492;2023-04-24T10:44:16;22.76;45.84
65472;DHT22;52068;50.710;14.492;2023-04-24T10:46:45;22.76;45.73
65472;DHT22;52068;50.710;14.492;2023-04-24T10:49:11;22.76;45.64
65472;DHT22;52068;50.710;14.492;2023-04-24T10:51:52;22.74;45.62
65472;DHT22;52068;50.710;14.492;2023-04-24T10:54:24;22.74;45.73
65472;DHT22;52068;50.710;14.492;2023-04-24T10:56:50;22.73;45.56
65472;DHT22;52068;50.710;14.492;2023-04-24T10:59:23;22.73;45.59
65472;DHT22;52068;50.710;14.492;2023-04-24T11:01:52;22.73;45.60
65472;DHT22;52068;50.710;14.492;2023-04-24T11:04:21;22.74;45.61
65472;DHT22;52068;50.710;14.492;2023-04-24T11:06:53;22.73;45.71
65472;DHT22;52068;50.710;14.492;2023-04-24T11:09:18;22.73;45.57
65472;DHT22;52068;50.710;14.492;2023-04-24T11:11:46;22.74;45.50
65472;DHT22;52068;50.710;14.492;2023-04-24T11:14:14;22.73;45.63
65472;DHT22;52068;50.710;14.492;2023-04-24T11:16:52;22.74;45.54
65472;DHT22;52068;50.710;14.492;2023-04-24T11:27:04;22.82;45.31
65472;DHT22;52068;50.710;14.492;2023-04-24T11:32:14;22.84;45.31
65472;DHT22;52068;50.710;14.492;2023-04-24T11:34:41;22.86;45.41
65472;DHT22;52068;50.710;14.492;2023-04-24T11:37:06;22.84;45.34
65472;DHT22;52068;50.710;14.492;2023-04-24T11:39:36;22.87;45.18
65472;DHT22;52068;50.710;14.492;2023-04-24T11:42:04;22.89;45.19
65472;DHT22;52068;50.710;14.492;2023-04-24T11:44:31;22.87;45.11
65472;DHT22;52068;50.710;14.492;2023-04-24T11:46:58;22.86;45.07
65472;DHT22;52068;50.710;14.492;2023-04-24T11:49:23;22.84;45.10
65472;DHT22;52068;50.710;14.492;2023-04-24T11:51:49;22.84;45.20
65472;DHT22;52068;50.710;14.492;2023-04-24T11:54:14;22.86;45.23
65472;DHT22;52068;50.710;14.492;2023-04-24T11:56:44;22.84;45.27
65472;DHT22;52068;50.710;14.492;2023-04-24T11:59:09;22.87;45.25
65472;DHT22;52068;50.710;14.492;2023-04-24T12:01:44;22.87;45.26
65472;DHT22;52068;50.710;14.492;2023-04-24T12:04:10;22.89;45.29
65472;DHT22;52068;50.710;14.492;2023-04-24T12:06:35;22.92;45.23
65472;DHT22;52068;50.710;14.492;2023-04-24T12:09:01;22.94;45.23
65472;DHT22;52068;50.710;14.492;2023-04-24T12:11:26;22.94;45.20
65472;DHT22;52068;50.710;14.492;2023-04-24T12:13:51;22.93;45.19
65472;DHT22;52068;50.710;14.492;2023-04-24T12:16:17;22.99;45.15
65472;DHT22;52068;50.710;14.492;2023-04-24T12:18:43;22.99;45.16
65472;DHT22;52068;50.710;14.492;2023-04-24T12:21:21;23.02;45.15
65472;DHT22;52068;50.710;14.492;2023-04-24T12:23:47;23.03;45.10
65472;DHT22;52068;50.710;14.492;2023-04-24T12:26:16;23.03;45.01
65472;DHT22;52068;50.710;14.492;2023-04-24T12:28:41;23.06;45.08
65472;DHT22;52068;50.710;14.492;2023-04-24T12:31:07;23.03;45.03
65472;DHT22;52068;50.710;14.492;2023-04-24T12:33:33;23.03;45.05
65472;DHT22;52068;50.710;14.492;2023-04-24T12:35:59;23.07;45.09
65472;DHT22;52068;50.710;14.492;2023-04-24T12:38:25;23.04;44.99
65472;DHT22;52068;50.710;14.492;2023-04-24T12:43:29;23.06;45.06
65472;DHT22;52068;50.710;14.492;2023-04-24T12:45:54;23.06;45.08
65472;DHT22;52068;50.710;14.492;2023-04-24T12:48:20;23.04;45.05
65472;DHT22;52068;50.710;14.492;2023-04-24T12:50:46;23.04;45.09
65472;DHT22;52068;50.710;14.492;2023-04-24T12:53:11;23.02;45.04
65472;DHT22;52068;50.710;14.492;2023-04-24T12:55:36;23.02;45.04
65472;DHT22;52068;50.710;14.492;2023-04-24T12:58:02;23.02;45.04
65472;DHT22;52068;50.710;14.492;2023-04-24T13:00:28;23.00;45.05
65472;DHT22;52068;50.710;14.492;2023-04-24T13:02:53;23.00;45.05
65472;DHT22;52068;50.710;14.492;2023-04-24T13:05:19;22.99;45.06
65472;DHT22;52068;50.710;14.492;2023-04-24T13:07:44;22.97;45.09
65472;DHT22;52068;50.710;14.492;2023-04-24T13:10:09;22.96;45.10
65472;DHT22;52068;50.710;14.492;2023-04-24T13:12:35;22.97;45.08
65472;DHT22;52068;50.710;14.492;2023-04-24T13:15:00;23.00;45.06
65472;DHT22;52068;50.710;14.492;2023-04-24T13:17:26;22.99;45.12
65472;DHT22;52068;50.710;14.492;2023-04-24T13:19:53;23.02;45.09
65472;DHT22;52068;50.710;14.492;2023-04-24T13:22:19;23.00;45.06
65472;DHT22;52068;50.710;14.492;2023-04-24T13:24:45;23.02;45.04
65472;DHT22;52068;50.710;14.492;2023-04-24T13:27:10;23.03;44.97
65472;DHT22;52068;50.710;14.492;2023-04-24T13:29:36;23.02;44.96
65472;DHT22;52068;50.710;14.492;2023-04-24T13:32:02;23.02;44.78
65472;DHT22;52068;50.710;14.492;2023-04-24T13:34:27;23.00;44.81
65472;DHT22;52068;50.710;14.492;2023-04-24T13:36:53;22.97;44.75
65472;DHT22;52068;50.710;14.492;2023-04-24T13:39:18;22.94;44.80
65472;DHT22;52068;50.710;14.492;2023-04-24T13:41:43;22.93;44.72
65472;DHT22;52068;50.710;14.492;2023-04-24T13:44:10;22.96;44.49
65472;DHT22;52068;50.710;14.492;2023-04-24T13:46:35;23.00;44.36
65472;DHT22;52068;50.710;14.492;2023-04-24T13:49:01;23.08;44.34
65472;DHT22;52068;50.710;14.492;2023-04-24T13:51:27;23.13;44.22
65472;DHT22;52068;50.710;14.492;2023-04-24T13:53:53;23.18;44.00
65472;DHT22;52068;50.710;14.492;2023-04-24T13:56:18;23.21;44.02
65472;DHT22;52068;50.710;14.492;2023-04-24T13:58:43;23.24;44.02
65472;DHT22;52068;50.710;14.492;2023-04-24T14:01:08;23.30;43.92
65472;DHT22;52068;50.710;14.492;2023-04-24T14:03:34;23.31;43.82
65472;DHT22;52068;50.710;14.492;2023-04-24T14:05:59;23.33;43.54
65472;DHT22;52068;50.710;14.492;2023-04-24T14:08:24;23.34;43.57
65472;DHT22;52068;50.710;14.492;2023-04-24T14:10:50;23.33;43.60
65472;DHT22;52068;50.710;14.492;2023-04-24T14:13:15;23.33;43.64
65472;DHT22;52068;50.710;14.492;2023-04-24T14:15:41;23.31;43.67
65472;DHT22;52068;50.710;14.492;2023-04-24T14:18:06;23.31;43.82
65472;DHT22;52068;50.710;14.492;2023-04-24T14:20:31;23.30;43.90
65472;DHT22;52068;50.710;14.492;2023-04-24T14:22:57;23.27;43.76
65472;DHT22;52068;50.710;14.492;2023-04-24T14:25:25;23.23;43.91
65472;DHT22;52068;50.710;14.492;2023-04-24T14:27:51;23.20;43.97
65472;DHT22;52068;50.710;14.492;2023-04-24T14:30:16;23.15;43.85
65472;DHT22;52068;50.710;14.492;2023-04-24T14:32:41;23.14;43.96
65472;DHT22;52068;50.710;14.492;2023-04-24T14:35:07;23.11;44.18
65472;DHT22;52068;50.710;14.492;2023-04-24T14:37:32;23.10;44.16
65472;DHT22;52068;50.710;14.492;2023-04-24T14:39:58;23.10;44.16
65472;DHT22;52068;50.710;14.492;2023-04-24T14:42:23;23.07;44.14
65472;DHT22;52068;50.710;14.492;2023-04-24T14:44:48;23.07;44.17
65472;DHT22;52068;50.710;14.492;2023-04-24T14:47:13;23.04;43.97
65472;DHT22;52068;50.710;14.492;2023-04-24T14:49:39;23.02;43.86
65472;DHT22;52068;50.710;14.492;2023-04-24T14:52:04;23.02;43.89
65472;DHT22;52068;50.710;14.492;2023-04-24T14:54:29;22.99;44.07
65472;DHT22;52068;50.710;14.492;2023-04-24T14:56:55;22.97;44.04
65472;DHT22;52068;50.710;14.492;2023-04-24T14:59:23;22.96;43.91
65472;DHT22;52068;50.710;14.492;2023-04-24T15:01:49;22.92;43.93
65472;DHT22;52068;50.710;14.492;2023-04-24T15:04:15;22.92;44.07
65472;DHT22;52068;50.710;14.492;2023-04-24T15:06:41;22.92;44.10
65472;DHT22;52068;50.710;14.492;2023-04-24T15:09:06;22.93;44.30
65472;DHT22;52068;50.710;14.492;2023-04-24T15:11:32;22.89;44.25
65472;DHT22;52068;50.710;14.492;2023-04-24T15:13:57;22.87;44.29
65472;DHT22;52068;50.710;14.492;2023-04-24T15:16:23;22.87;44.23
65472;DHT22;52068;50.710;14.492;2023-04-24T15:18:48;22.87;44.41
65472;DHT22;52068;50.710;14.492;2023-04-24T15:21:13;22.86;44.36
65472;DHT22;52068;50.710;14.492;2023-04-24T15:23:39;22.84;44.53